Time;durP1;ratioP1;P1;durP2;ratioP2;P2;SDS_P1;SDS_P2;PMS_P1;PMS_P2;Temp;Humidity;BMP_temperature;BMP_pressure;BME280_temperature;BME280_humidity;BME280_pressure;Samples;Min_cycle;Max_cycle;Signal;HPM_P1;HPM_P2
2022/07/20 00:02:21;;;;;;;10.30;3.90;;;;;;;27.07;32.45;100995.03;4716814;30;20280;-71
2022/07/20 00:04:48;;;;;;;10.95;3.05;;;;;;;26.96;32.41;101000.13;4719156;30;20488;-72
2022/07/20 00:07:14;;;;;;;6.70;3.15;;;;;;;26.99;33.48;101004.22;4719218;30;20025;-72
2022/07/20 00:12:23;;;;;;;9.07;3.17;;;;;;;26.86;34.75;101003.28;4718130;30;20043;-72
2022/07/20 00:14:48;;;;;;;11.60;3.28;;;;;;;26.88;34.17;100992.66;4718000;30;20037;-71
2022/07/20 00:17:14;;;;;;;8.45;3.00;;;;;;;26.89;32.63;100994.31;4718727;30;20048;-71
2022/07/20 00:19:39;;;;;;;9.65;3.33;;;;;;;26.82;34.54;100989.25;4719115;30;20112;-72
2022/07/20 00:22:04;;;;;;;12.40;3.20;;;;;;;26.84;33.12;100988.91;4718369;30;20068;-71
2022/07/20 00:24:30;;;;;;;9.70;3.38;;;;;;;26.76;33.19;100987.00;4719211;30;20041;-72
2022/07/20 00:26:55;;;;;;;8.57;3.58;;;;;;;26.74;34.55;100987.31;4719113;30;20037;-72
2022/07/20 00:29:20;;;;;;;10.00;2.90;;;;;;;26.77;33.18;100996.94;4717660;30;20378;-72
2022/07/20 00:31:46;;;;;;;9.23;3.42;;;;;;;26.67;34.87;100992.56;4717287;30;20299;-72
2022/07/20 00:34:11;;;;;;;7.78;2.97;;;;;;;26.71;34.32;100999.09;4718729;30;20029;-72
2022/07/20 00:36:36;;;;;;;9.27;3.22;;;;;;;26.64;34.58;101005.09;4718888;30;20037;-72
2022/07/20 00:39:03;;;;;;;8.13;3.05;;;;;;;26.61;33.19;101069.59;4703003;30;20080;-72
2022/07/20 00:41:28;;;;;;;9.65;3.20;;;;;;;26.49;33.29;101008.41;4718348;30;20437;-72
2022/07/20 00:44:01;;;;;;;9.02;3.00;;;;;;;26.49;33.29;101008.41;4718763;30;20107;-72
2022/07/20 00:46:30;;;;;;;6.38;3.22;;;;;;;26.41;35.27;101014.81;4717651;30;20053;-71
2022/07/20 00:48:55;;;;;;;8.13;3.90;;;;;;;26.30;34.60;101012.38;4718736;30;20037;-72
2022/07/20 00:51:21;;;;;;;8.80;3.78;;;;;;;26.35;33.81;101031.59;4717684;30;20041;-72
2022/07/20 00:53:46;;;;;;;9.52;3.05;;;;;;;26.34;33.68;101057.75;4718651;30;20036;-72
2022/07/20 00:56:14;;;;;;;7.55;3.28;;;;;;;26.26;33.76;101027.22;4718373;30;20102;-72
2022/07/20 00:58:40;;;;;;;12.63;3.22;;;;;;;26.21;34.87;101030.16;4718496;30;20114;-72
2022/07/20 01:01:05;;;;;;;9.50;3.47;;;;;;;26.14;34.07;101069.47;4715339;30;20044;-73
2022/07/20 01:03:30;;;;;;;7.50;3.72;;;;;;;25.96;35.18;101027.03;4718016;30;20040;-72
2022/07/20 01:05:56;;;;;;;8.82;3.60;;;;;;;25.90;35.76;101025.56;4718281;30;20644;-72
2022/07/20 01:08:21;;;;;;;9.63;3.50;;;;;;;25.85;36.06;101028.47;4718447;30;20037;-72
2022/07/20 01:10:47;;;;;;;9.85;3.42;;;;;;;25.77;37.02;101016.25;4718004;30;20462;-72
2022/07/20 01:13:12;;;;;;;12.70;3.50;;;;;;;25.80;35.00;101033.06;4700955;30;20033;-72
2022/07/20 01:15:38;;;;;;;9.30;3.50;;;;;;;25.60;37.43;101023.38;4716743;30;20029;-72
2022/07/20 01:18:03;;;;;;;9.73;3.60;;;;;;;25.57;37.98;101018.50;4717893;30;20066;-72
2022/07/20 01:20:30;;;;;;;6.35;3.20;;;;;;;25.59;36.47;101032.84;4717948;30;20128;-72
2022/07/20 01:22:55;;;;;;;8.85;3.45;;;;;;;25.51;38.59;101021.75;4718128;30;20607;-72
2022/07/20 01:25:21;;;;;;;9.95;3.67;;;;;;;25.44;37.79;101019.47;4717870;30;20112;-72
2022/07/20 01:27:46;;;;;;;9.73;3.42;;;;;;;25.42;38.30;101018.94;4718210;30;20033;-72
2022/07/20 01:30:12;;;;;;;8.68;3.42;;;;;;;25.38;38.71;101013.25;4701187;30;20040;-72
2022/07/20 01:32:37;;;;;;;6.32;3.38;;;;;;;25.30;39.01;101014.03;4717318;30;20033;-72
2022/07/20 01:35:03;;;;;;;8.40;3.47;;;;;;;25.34;38.49;101008.66;4717723;30;20115;-72
2022/07/20 01:37:29;;;;;;;11.48;3.72;;;;;;;25.36;38.43;101014.69;4717657;30;20447;-71
2022/07/20 01:39:55;;;;;;;11.70;3.42;;;;;;;25.27;38.96;101009.94;4717750;30;20041;-71
2022/07/20 01:42:20;;;;;;;10.38;3.90;;;;;;;25.23;39.16;101011.69;4717421;30;20107;-72
2022/07/20 01:44:45;;;;;;;8.70;4.05;;;;;;;25.09;38.61;101008.22;4716723;30;20041;-72
2022/07/20 01:47:10;;;;;;;8.38;3.45;;;;;;;25.16;38.99;101013.31;4716825;30;20045;-72
2022/07/20 01:49:36;;;;;;;10.73;3.92;;;;;;;25.14;39.25;101010.84;4716557;30;20037;-72
2022/07/20 01:52:01;;;;;;;10.63;3.40;;;;;;;25.07;38.97;101014.06;4717709;30;20041;-72
2022/07/20 01:54:27;;;;;;;10.43;3.85;;;;;;;25.13;39.31;101023.06;4717432;30;20373;-72
2022/07/20 01:56:52;;;;;;;9.05;4.00;;;;;;;24.97;39.01;101022.69;4717337;30;20449;-72
2022/07/20 01:59:17;;;;;;;12.52;3.63;;;;;;;25.04;39.50;101030.50;4716291;30;20033;-72
2022/07/20 02:01:42;;;;;;;10.00;3.95;;;;;;;24.99;38.55;101039.78;4715310;30;20037;-72
2022/07/20 02:04:08;;;;;;;8.38;3.53;;;;;;;24.82;39.99;101045.22;4717448;30;20454;-72
2022/07/20 02:06:33;;;;;;;8.40;3.80;;;;;;;24.91;37.29;101060.75;4717002;30;20119;-72
2022/07/20 02:08:58;;;;;;;10.88;3.63;;;;;;;25.03;35.99;101065.69;4717367;30;20733;-72
2022/07/20 02:11:24;;;;;;;11.27;3.42;;;;;;;25.04;36.04;101080.34;4716202;30;20029;-72
2022/07/20 02:13:50;;;;;;;9.93;4.10;;;;;;;25.01;37.22;101072.69;4714978;30;20104;-72
2022/07/20 02:16:15;;;;;;;12.18;5.20;;;;;;;24.92;38.10;101078.16;4716465;30;20036;-72
2022/07/20 02:18:46;;;;;;;14.15;6.10;;;;;;;24.84;39.39;101065.09;4717316;30;20060;-72
2022/07/20 02:21:12;;;;;;;15.10;6.60;;;;;;;24.78;40.64;101069.94;4717216;30;20104;-72
2022/07/20 02:23:38;;;;;;;11.43;6.60;;;;;;;24.71;40.84;101061.25;4701300;30;20025;-77
2022/07/20 02:26:03;;;;;;;12.18;7.03;;;;;;;24.67;41.47;101072.16;4701302;30;20083;-75
2022/07/20 02:28:29;;;;;;;17.83;7.32;;;;;;;24.62;41.78;101068.69;4716146;30;20481;-74
2022/07/20 02:30:54;;;;;;;18.90;7.45;;;;;;;24.57;42.46;101064.06;4716325;30;20045;-75
2022/07/20 02:33:20;;;;;;;21.30;7.57;;;;;;;24.52;42.83;101067.78;4716414;30;20029;-74
2022/07/20 02:35:48;;;;;;;21.48;8.57;;;;;;;24.44;43.43;101059.41;4716226;30;20037;-75
2022/07/20 02:38:13;;;;;;;22.65;8.88;;;;;;;24.38;44.03;101067.03;4716764;30;20029;-78
2022/07/20 02:40:38;;;;;;;17.27;9.55;;;;;;;24.31;45.20;101067.47;4700910;30;20064;-72
2022/07/20 02:43:05;;;;;;;21.92;9.88;;;;;;;24.22;45.96;101083.16;4717034;30;20120;-72
2022/07/20 02:45:30;;;;;;;20.85;10.30;;;;;;;24.13;46.75;101077.56;4715261;30;20044;-72
2022/07/20 02:48:02;;;;;;;20.15;10.38;;;;;;;24.08;47.63;101085.97;4716937;30;20025;-72
2022/07/20 02:50:28;;;;;;;24.58;12.07;;;;;;;24.06;48.56;101077.16;4716679;30;20075;-72
2022/07/20 02:52:53;;;;;;;27.60;13.10;;;;;;;24.02;50.41;101073.38;4717147;30;20116;-73
2022/07/20 02:55:18;;;;;;;22.63;13.90;;;;;;;23.97;50.81;101074.31;4715788;30;20045;-72
2022/07/20 02:57:44;;;;;;;24.70;14.10;;;;;;;23.91;51.17;101064.50;4701164;30;20037;-72
2022/07/20 03:00:10;;;;;;;27.23;14.43;;;;;;;23.86;51.75;101070.97;4715672;30;20033;-72
2022/07/20 03:02:35;;;;;;;25.90;15.40;;;;;;;23.77;52.37;101070.03;4714423;30;20602;-72
2022/07/20 03:05:00;;;;;;;24.27;15.25;;;;;;;23.74;52.76;101092.75;4716780;30;20096;-72
2022/07/20 03:07:25;;;;;;;28.40;15.95;;;;;;;23.68;53.34;101093.97;4716293;30;20120;-72
2022/07/20 03:09:51;;;;;;;25.90;15.18;;;;;;;23.63;53.64;101085.81;4716108;30;20116;-72
2022/07/20 03:12:16;;;;;;;27.05;15.43;;;;;;;23.63;54.07;101074.75;4716754;30;20072;-72
2022/07/20 03:14:41;;;;;;;32.55;16.73;;;;;;;23.62;54.49;101067.59;4715981;30;20083;-72
2022/07/20 03:17:06;;;;;;;30.60;17.05;;;;;;;23.54;55.28;101067.19;4716304;30;20455;-72
2022/07/20 03:19:32;;;;;;;30.52;18.05;;;;;;;23.48;55.77;101067.59;4716602;30;20033;-72
2022/07/20 03:21:57;;;;;;;26.48;17.17;;;;;;;23.45;55.92;101080.06;4716735;30;20361;-72
2022/07/20 03:24:22;;;;;;;32.30;17.98;;;;;;;23.38;56.06;101079.66;4716200;30;20458;-72
2022/07/20 03:26:48;;;;;;;27.05;18.00;;;;;;;23.41;56.58;101089.28;4702702;30;20058;-72
2022/07/20 03:29:13;;;;;;;27.58;17.20;;;;;;;23.33;56.86;101097.16;4719107;30;20033;-72
2022/07/20 03:31:38;;;;;;;28.95;19.70;;;;;;;23.33;57.24;101107.38;4718653;30;20368;-72
2022/07/20 03:34:03;;;;;;;29.40;19.20;;;;;;;23.25;57.49;101105.31;4719905;30;20116;-72
2022/07/20 03:36:29;;;;;;;27.83;18.75;;;;;;;23.20;57.90;101113.69;4719628;30;20454;-72
2022/07/20 03:38:54;;;;;;;27.67;18.97;;;;;;;23.21;57.87;101123.63;4719699;30;20036;-72
2022/07/20 03:41:19;;;;;;;31.77;19.63;;;;;;;23.15;58.38;101137.50;4719608;30;20279;-72
2022/07/20 03:43:45;;;;;;;40.45;20.42;;;;;;;23.12;58.46;101127.06;4719994;30;20519;-72
2022/07/20 03:46:11;;;;;;;30.65;18.70;;;;;;;23.07;59.22;101132.66;4718844;30;20053;-72
2022/07/20 03:48:37;;;;;;;33.28;19.73;;;;;;;23.08;59.35;101137.03;4719525;30;20037;-72
2022/07/20 03:51:03;;;;;;;31.48;20.50;;;;;;;23.03;59.76;101134.38;4718648;30;20041;-72
2022/07/20 03:53:28;;;;;;;30.55;20.55;;;;;;;22.97;60.05;101149.38;4719163;30;20481;-72
2022/07/20 03:55:53;;;;;;;33.72;21.48;;;;;;;22.98;60.05;101159.31;4718278;30;20366;-72
2022/07/20 03:58:18;;;;;;;36.40;21.38;;;;;;;22.95;60.41;101168.19;4719521;30;20033;-72
2022/07/20 04:00:44;;;;;;;31.05;20.75;;;;;;;22.92;60.43;101171.56;4716342;30;20029;-72
2022/07/20 04:03:09;;;;;;;34.03;21.42;;;;;;;22.87;60.52;101179.91;4719231;30;20040;-72
2022/07/20 04:05:34;;;;;;;30.83;20.85;;;;;;;22.88;60.79;101176.84;4719482;30;20048;-72
2022/07/20 04:07:59;;;;;;;35.92;22.08;;;;;;;22.87;60.70;101175.19;4703638;30;20486;-72
2022/07/20 04:10:25;;;;;;;35.97;21.77;;;;;;;22.80;60.95;101174.78;4717985;30;20033;-72
2022/07/20 04:12:50;;;;;;;31.73;20.85;;;;;;;22.82;60.77;101178.84;4719390;30;20033;-72
2022/07/20 04:15:15;;;;;;;33.30;21.55;;;;;;;22.78;60.60;101180.59;4717816;30;20363;-72
2022/07/20 04:17:41;;;;;;;31.35;20.38;;;;;;;22.79;60.65;101179.47;4718778;30;20064;-73
2022/07/20 04:20:07;;;;;;;33.63;21.20;;;;;;;22.83;60.63;101187.97;4719110;30;20163;-73
2022/07/20 04:22:33;;;;;;;29.70;21.10;;;;;;;22.77;60.77;101189.97;4718897;30;20478;-72
2022/07/20 04:24:58;;;;;;;32.97;19.95;;;;;;;22.75;60.89;101188.63;4718804;30;20040;-73
2022/07/20 04:27:23;;;;;;;30.73;19.63;;;;;;;22.76;60.86;101190.28;4717701;30;20037;-73
2022/07/20 04:29:48;;;;;;;29.73;19.95;;;;;;;22.81;60.35;101191.03;4717919;30;20374;-72
2022/07/20 04:32:14;;;;;;;25.88;19.20;;;;;;;22.82;60.42;101195.41;4719025;30;20033;-72
2022/07/20 04:34:39;;;;;;;28.13;19.95;;;;;;;22.83;60.18;101202.56;4718489;30;20377;-72
2022/07/20 04:37:05;;;;;;;29.17;19.63;;;;;;;22.88;60.21;101198.91;4718517;30;20036;-72
2022/07/20 04:39:31;;;;;;;28.80;19.00;;;;;;;22.83;60.27;101207.28;4717776;30;20033;-72
2022/07/20 04:41:56;;;;;;;29.10;18.70;;;;;;;22.88;60.18;101207.19;4718751;30;20033;-72
2022/07/20 04:44:23;;;;;;;29.83;18.52;;;;;;;22.94;59.79;101207.94;4701866;30;20039;-72
2022/07/20 04:46:53;;;;;;;27.23;19.10;;;;;;;22.92;60.09;101224.00;4702204;30;20099;-73
2022/07/20 04:49:23;;;;;;;27.20;17.73;;;;;;;22.92;59.95;101218.47;4702694;30;20028;-72
2022/07/20 04:51:52;;;;;;;27.45;18.75;;;;;;;22.95;59.75;101228.91;4702694;30;20108;-73
2022/07/20 04:54:22;;;;;;;25.58;17.27;;;;;;;22.88;59.79;101229.28;4702797;30;20036;-72
2022/07/20 04:56:52;;;;;;;29.88;17.92;;;;;;;22.88;59.57;101229.28;4702464;30;20029;-72
2022/07/20 04:59:20;;;;;;;26.70;17.60;;;;;;;22.84;59.35;101225.47;4701841;30;20037;-72
2022/07/20 05:01:45;;;;;;;26.90;17.42;;;;;;;22.84;60.53;101222.69;4700130;30;20029;-72
2022/07/20 05:04:14;;;;;;;30.20;18.50;;;;;;;22.88;59.72;101231.22;4717265;30;20029;-73
2022/07/20 05:06:39;;;;;;;28.00;16.60;;;;;;;22.83;59.53;101219.13;4717878;30;20032;-72
2022/07/20 05:09:07;;;;;;;22.67;15.98;;;;;;;22.83;59.40;101219.13;4702577;30;20370;-72
2022/07/20 05:11:33;;;;;;;26.08;16.83;;;;;;;22.86;59.39;101214.97;4702305;30;20130;-72
2022/07/20 05:13:59;;;;;;;26.52;16.10;;;;;;;22.82;59.78;101216.69;4701683;30;20095;-73
2022/07/20 05:16:30;;;;;;;32.47;16.10;;;;;;;22.87;59.50;101215.78;4702488;30;20044;-73
2022/07/20 05:19:02;;;;;;;24.88;16.70;;;;;;;22.91;59.39;101227.88;4701875;30;20127;-73
2022/07/20 05:21:33;;;;;;;30.80;16.35;;;;;;;22.83;59.79;101230.16;4701734;30;20060;-73
2022/07/20 05:24:06;;;;;;;25.85;16.85;;;;;;;22.89;59.60;101232.84;4702142;30;20061;-73
2022/07/20 05:26:38;;;;;;;34.10;17.38;;;;;;;22.94;59.18;101241.06;4700638;30;20394;-73
2022/07/20 05:29:12;;;;;;;35.60;16.25;;;;;;;22.94;59.57;101252.91;4701086;30;20068;-73
2022/07/20 05:31:46;;;;;;;26.10;15.52;;;;;;;22.99;59.38;101260.28;4701573;30;20436;-72
2022/07/20 05:34:20;;;;;;;30.45;15.88;;;;;;;22.97;59.27;101263.34;4702075;30;20362;-72
2022/07/20 05:36:53;;;;;;;27.83;15.63;;;;;;;22.98;58.79;101270.50;4701736;30;20924;-72
2022/07/20 05:39:26;;;;;;;29.77;15.98;;;;;;;23.05;58.96;101269.31;4701858;30;20429;-72
2022/07/20 05:42:00;;;;;;;22.17;14.68;;;;;;;23.02;58.75;101276.25;4701834;30;20179;-72
2022/07/20 05:44:28;;;;;;;24.45;15.65;;;;;;;23.07;58.43;101290.00;4713283;30;20032;-72
2022/07/20 05:46:55;;;;;;;25.98;15.68;;;;;;;23.12;58.66;101305.69;4701982;30;20192;-72
2022/07/20 05:49:22;;;;;;;22.60;14.48;;;;;;;23.10;59.43;101305.97;4701538;30;20029;-73
2022/07/20 05:51:54;;;;;;;23.95;14.32;;;;;;;23.12;58.66;101298.22;4701730;30;20033;-72
2022/07/20 05:54:26;;;;;;;21.05;13.23;;;;;;;23.16;57.75;101304.78;4701678;30;20060;-73
2022/07/20 05:56:52;;;;;;;28.95;13.80;;;;;;;23.21;57.74;101306.66;4700646;30;20029;-72
2022/07/20 05:59:17;;;;;;;27.38;12.93;;;;;;;23.25;57.48;101315.13;4717497;30;20029;-72
2022/07/20 06:01:44;;;;;;;27.45;12.77;;;;;;;23.26;57.26;101314.03;4699494;30;20119;-73
2022/07/20 06:04:12;;;;;;;20.33;13.40;;;;;;;23.29;57.48;101333.56;4716441;30;20136;-72
2022/07/20 06:06:38;;;;;;;25.52;12.63;;;;;;;23.26;57.22;101336.13;4716980;30;20037;-72
2022/07/20 06:09:05;;;;;;;24.73;12.65;;;;;;;23.27;57.35;101341.34;4717481;30;20394;-72
2022/07/20 06:11:30;;;;;;;24.80;12.35;;;;;;;23.21;57.93;101344.50;4700789;30;20037;-72
2022/07/20 06:13:56;;;;;;;23.50;12.05;;;;;;;23.25;57.49;101340.84;4717514;30;20043;-72
2022/07/20 06:16:21;;;;;;;18.15;12.00;;;;;;;23.20;57.96;101359.41;4717565;30;20088;-73
2022/07/20 06:18:46;;;;;;;25.63;11.48;;;;;;;23.22;57.65;101365.44;4717011;30;20497;-74
2022/07/20 06:21:13;;;;;;;22.42;12.05;;;;;;;23.21;57.78;101361.06;4717191;30;20052;-75
2022/07/20 06:23:39;;;;;;;21.13;11.73;;;;;;;23.20;57.86;101370.44;4700334;30;20029;-74
2022/07/20 06:26:05;;;;;;;22.35;11.80;;;;;;;23.23;58.28;101383.66;4700419;30;20398;-73
2022/07/20 06:28:33;;;;;;;20.05;11.70;;;;;;;23.24;57.80;101383.34;4701229;30;20152;-74
2022/07/20 06:30:58;;;;;;;24.25;12.50;;;;;;;23.28;57.47;101389.09;4717360;30;20033;-73
2022/07/20 06:33:25;;;;;;;22.27;11.80;;;;;;;23.30;57.64;101397.91;4717178;30;20033;-73
2022/07/20 06:35:50;;;;;;;20.05;11.70;;;;;;;23.35;57.32;101412.44;4719434;30;20101;-72
2022/07/20 06:38:15;;;;;;;27.02;12.63;;;;;;;23.35;57.58;101419.91;4716399;30;20045;-73
2022/07/20 06:40:40;;;;;;;21.58;11.43;;;;;;;23.35;57.48;101426.25;4699915;30;20347;-73
2022/07/20 06:43:06;;;;;;;23.13;11.20;;;;;;;23.35;57.12;101423.50;4715278;30;20041;-74
2022/07/20 06:45:31;;;;;;;23.80;11.80;;;;;;;23.36;57.24;101424.34;4716871;30;20108;-74
2022/07/20 06:47:56;;;;;;;19.75;10.68;;;;;;;23.34;57.30;101434.84;4701166;30;20425;-73
2022/07/20 06:50:22;;;;;;;21.83;11.15;;;;;;;23.38;57.04;101437.84;4716852;30;20033;-73
2022/07/20 06:52:47;;;;;;;28.50;11.60;;;;;;;23.31;57.39;101435.44;4716494;30;20123;-75
2022/07/20 06:55:13;;;;;;;21.55;10.98;;;;;;;23.24;57.53;101443.28;4700770;30;20109;-75
2022/07/20 06:57:38;;;;;;;21.52;11.43;;;;;;;23.18;57.91;101448.84;4699186;30;20029;-76
2022/07/20 07:00:06;;;;;;;19.75;11.02;;;;;;;23.20;57.60;101458.78;4700885;30;20584;-76
2022/07/20 07:02:34;;;;;;;21.58;11.10;;;;;;;23.24;57.55;101448.81;4698709;30;20029;-76
2022/07/20 07:04:59;;;;;;;18.55;10.85;;;;;;;23.20;57.56;101442.22;4720189;30;20116;-76
2022/07/20 07:07:25;;;;;;;20.92;11.05;;;;;;;23.26;57.58;101460.38;4719997;30;20120;-79
2022/07/20 07:09:50;;;;;;;18.70;10.88;;;;;;;23.28;57.54;101458.13;4703862;30;20379;-73
2022/07/20 07:12:18;;;;;;;21.15;10.93;;;;;;;23.31;57.45;101446.47;4718846;30;20037;-79
2022/07/20 07:14:44;;;;;;;22.55;11.18;;;;;;;23.35;57.71;101422.69;4703342;30;20029;-74
2022/07/20 07:17:09;;;;;;;26.05;11.43;;;;;;;23.40;57.90;101436.44;4719908;30;20033;-76
2022/07/20 07:19:34;;;;;;;21.63;11.35;;;;;;;23.44;57.46;101440.22;4704199;30;20044;-73
2022/07/20 07:22:00;;;;;;;25.67;11.88;;;;;;;23.51;56.93;101443.44;4703537;30;20040;-71
2022/07/20 07:24:25;;;;;;;19.10;10.30;;;;;;;23.60;56.76;101446.38;4717454;30;20041;-71
2022/07/20 07:26:50;;;;;;;15.57;10.25;;;;;;;23.71;56.96;101458.06;4718951;30;20037;-71
2022/07/20 07:29:15;;;;;;;24.00;10.63;;;;;;;23.78;56.82;101464.06;4720930;30;20044;-71
2022/07/20 07:31:41;;;;;;;19.80;9.77;;;;;;;23.80;56.13;101467.34;4717756;30;20048;-71
2022/07/20 07:34:06;;;;;;;20.13;9.98;;;;;;;23.81;55.98;101473.66;4717740;30;20425;-71
2022/07/20 07:36:34;;;;;;;23.20;10.10;;;;;;;23.80;56.50;101481.16;4717972;30;20037;-71
2022/07/20 07:38:59;;;;;;;21.75;9.95;;;;;;;23.92;56.41;101496.50;4718796;30;20477;-68
2022/07/20 07:41:25;;;;;;;18.88;9.85;;;;;;;23.95;56.54;101485.66;4702804;30;20037;-68
2022/07/20 07:43:50;;;;;;;19.83;9.73;;;;;;;24.11;55.85;101500.06;4718823;30;20124;-68
2022/07/20 07:46:15;;;;;;;25.70;10.80;;;;;;;24.15;56.08;101506.63;4720016;30;20037;-70
2022/07/20 07:48:41;;;;;;;22.75;9.50;;;;;;;24.27;56.18;101503.38;4719492;30;20454;-70
2022/07/20 07:51:06;;;;;;;19.08;9.05;;;;;;;24.32;55.82;101508.00;4703102;30;20052;-69
2022/07/20 07:53:31;;;;;;;20.65;10.18;;;;;;;24.37;55.23;101513.47;4719535;30;20043;-69
2022/07/20 07:55:57;;;;;;;18.42;8.98;;;;;;;24.42;54.00;101508.66;4719315;30;20051;-69
2022/07/20 07:58:22;;;;;;;18.13;8.60;;;;;;;24.43;55.08;101509.50;4719556;30;20116;-69
2022/07/20 08:00:49;;;;;;;19.80;8.63;;;;;;;24.49;53.42;101504.66;4716245;30;20049;-69
2022/07/20 08:03:14;;;;;;;22.63;8.93;;;;;;;24.55;53.61;101497.94;4719550;30;20104;-69
2022/07/20 08:05:40;;;;;;;17.17;8.10;;;;;;;24.63;53.79;101493.69;4718935;30;20028;-69
2022/07/20 08:08:14;;;;;;;16.73;8.45;;;;;;;24.67;52.67;101483.63;4719466;30;20045;-76
2022/07/20 08:10:40;;;;;;;18.42;8.65;;;;;;;24.70;52.63;101474.72;4702290;30;20429;-73
2022/07/20 08:13:10;;;;;;;15.35;7.78;;;;;;;24.78;52.51;101476.78;4719160;30;20120;-73
2022/07/20 08:15:37;;;;;;;18.85;8.95;;;;;;;24.80;52.00;101466.22;4702085;30;20120;-73
2022/07/20 08:18:03;;;;;;;14.90;7.95;;;;;;;24.91;52.79;101472.38;4718603;30;20069;-73
2022/07/20 08:20:31;;;;;;;15.02;8.63;;;;;;;24.92;51.25;101462.94;4717878;30;20037;-75
2022/07/20 08:22:59;;;;;;;15.00;8.20;;;;;;;24.89;52.79;101469.09;4702925;30;20063;-73
2022/07/20 08:25:24;;;;;;;17.30;8.50;;;;;;;24.83;52.04;101471.13;4717412;30;20037;-72
2022/07/20 08:27:50;;;;;;;12.63;8.27;;;;;;;24.90;52.67;101474.31;4718606;30;20086;-74
2022/07/20 08:30:16;;;;;;;21.50;9.23;;;;;;;24.87;51.94;101476.91;4718984;30;20037;-73
2022/07/20 08:32:42;;;;;;;18.00;8.10;;;;;;;24.92;52.37;101493.41;4718677;30;20063;-72
2022/07/20 08:35:08;;;;;;;20.98;8.75;;;;;;;24.94;51.65;101494.75;4718018;30;20036;-71
2022/07/20 08:37:33;;;;;;;14.95;8.38;;;;;;;24.88;51.85;101495.97;4718634;30;20037;-70
2022/07/20 08:39:59;;;;;;;19.23;8.77;;;;;;;25.02;52.47;101511.78;4698755;30;20041;-71
2022/07/20 08:42:24;;;;;;;12.05;7.95;;;;;;;25.12;52.14;101511.53;4701152;30;20043;-70
2022/07/20 08:44:50;;;;;;;15.52;7.65;;;;;;;25.20;52.10;101526.63;4685613;30;20467;-71
2022/07/20 08:47:16;;;;;;;21.00;8.50;;;;;;;25.22;51.99;101510.53;4701355;30;20044;-70
2022/07/20 08:49:46;;;;;;;17.88;9.10;;;;;;;25.26;51.94;101501.28;4701353;30;20040;-72
2022/07/20 08:52:12;;;;;;;13.73;8.30;;;;;;;25.24;51.52;101495.25;4713489;30;20116;-71
2022/07/20 08:54:38;;;;;;;20.73;9.05;;;;;;;25.22;52.02;101497.50;4718594;30;20040;-70
2022/07/20 08:57:11;;;;;;;17.00;8.15;;;;;;;25.23;52.00;101498.34;4703064;30;20037;-70
2022/07/20 08:59:37;;;;;;;21.85;9.13;;;;;;;25.24;51.67;101478.63;4717458;30;20048;-70
2022/07/20 09:02:06;;;;;;;25.10;8.73;;;;;;;25.27;52.27;101463.31;4714925;30;20064;-70
2022/07/20 09:04:32;;;;;;;19.90;9.10;;;;;;;25.22;52.53;101453.19;4702786;30;20029;-72
2022/07/20 09:06:57;;;;;;;14.48;8.35;;;;;;;25.25;51.88;101460.88;4717526;30;20041;-70
2022/07/20 09:09:23;;;;;;;20.85;8.73;;;;;;;25.21;52.36;101487.56;4717762;30;20108;-70
2022/07/20 09:11:49;;;;;;;19.50;8.18;;;;;;;25.24;52.05;101500.78;4717911;30;20029;-71
2022/07/20 09:14:35;;;;;;;21.20;9.50;;;;;;;25.22;52.52;101497.50;4718154;30;20549;-70
2022/07/20 09:17:14;;;;;;;16.63;8.63;;;;;;;25.23;52.17;101513.00;4717647;30;20177;-69
2022/07/20 09:20:07;;;;;;;20.15;9.07;;;;;;;25.33;52.60;101561.84;4717232;30;20535;-70
2022/07/20 09:22:43;;;;;;;14.63;8.32;;;;;;;25.36;52.27;101582.56;4717468;30;20468;-72
2022/07/20 09:25:15;;;;;;;19.17;8.70;;;;;;;25.34;52.01;101590.38;4716335;30;20036;-71
2022/07/20 09:27:42;;;;;;;16.98;8.45;;;;;;;25.29;52.17;101600.44;4716532;30;20049;-71
2022/07/20 09:30:15;;;;;;;19.73;8.60;;;;;;;25.29;52.36;101599.59;4701654;30;20422;-72
2022/07/20 09:32:53;;;;;;;16.48;8.55;;;;;;;25.34;52.41;101582.88;4716743;30;20051;-69
2022/07/20 09:35:20;;;;;;;19.98;9.23;;;;;;;25.38;51.94;101575.59;4716985;30;20033;-69
2022/07/20 09:37:45;;;;;;;15.35;8.23;;;;;;;25.51;52.43;101559.28;4715955;30;20394;-71
2022/07/20 09:40:12;;;;;;;14.82;8.75;;;;;;;25.59;51.42;101564.06;4699471;30;20040;-69
2022/07/20 09:42:39;;;;;;;16.30;8.75;;;;;;;25.55;51.91;101566.66;4717098;30;20102;-70
2022/07/20 09:45:29;;;;;;;16.80;8.60;;;;;;;25.59;51.69;101561.31;4716670;30;20045;-69
2022/07/20 09:48:04;;;;;;;21.80;8.98;;;;;;;25.67;52.33;101560.59;4717584;30;20029;-72
2022/07/20 09:50:31;;;;;;;19.25;8.90;;;;;;;25.74;51.61;101549.91;4716988;30;20041;-68
2022/07/20 09:52:57;;;;;;;18.83;8.57;;;;;;;25.84;51.01;101548.84;4716502;30;20466;-69
2022/07/20 09:55:24;;;;;;;18.50;9.05;;;;;;;25.94;51.19;101547.81;4716568;30;20033;-69
2022/07/20 09:57:50;;;;;;;14.65;8.07;;;;;;;26.10;50.18;101534.41;4715198;30;20086;-69
2022/07/20 10:00:16;;;;;;;13.65;7.72;;;;;;;26.19;49.42;101543.63;4716574;30;20044;-71
2022/07/20 10:02:43;;;;;;;13.55;7.95;;;;;;;26.23;49.30;101547.41;4714911;30;20038;-70
2022/07/20 10:05:10;;;;;;;15.88;7.40;;;;;;;26.24;48.73;101545.44;4716645;30;20041;-71
2022/07/20 10:07:35;;;;;;;13.48;7.40;;;;;;;26.21;49.40;101546.06;4716034;30;20131;-70
2022/07/20 10:10:01;;;;;;;16.45;7.57;;;;;;;26.20;49.00;101566.66;4716443;30;20482;-70
2022/07/20 10:12:27;;;;;;;11.10;7.30;;;;;;;26.17;49.34;101568.91;4717301;30;20036;-70
2022/07/20 10:14:54;;;;;;;14.25;7.05;;;;;;;26.24;49.73;101579.56;4716414;30;20049;-69
2022/07/20 10:17:20;;;;;;;10.18;7.65;;;;;;;26.30;48.86;101567.22;4716482;30;20120;-70
2022/07/20 10:19:47;;;;;;;14.13;7.55;;;;;;;26.30;49.02;101561.66;4713973;30;20131;-70
2022/07/20 10:22:13;;;;;;;14.05;7.35;;;;;;;26.27;48.77;101551.19;4715303;30;20063;-69
2022/07/20 10:24:42;;;;;;;22.63;8.52;;;;;;;26.28;49.25;101552.00;4716148;30;20378;-71
2022/07/20 10:27:08;;;;;;;15.85;7.63;;;;;;;26.30;49.39;101539.47;4715925;30;20033;-71
2022/07/20 10:29:36;;;;;;;17.30;7.37;;;;;;;26.22;49.31;101543.00;4700717;30;20436;-71
2022/07/20 10:32:14;;;;;;;19.88;8.43;;;;;;;26.37;50.25;101544.56;4715020;30;20040;-71
2022/07/20 10:34:56;;;;;;;15.90;7.75;;;;;;;26.41;48.67;101547.53;4712304;30;20106;-71
2022/07/20 10:37:30;;;;;;;16.92;6.78;;;;;;;26.40;48.13;101543.94;4706401;30;20064;-71
2022/07/20 10:39:58;;;;;;;14.40;6.47;;;;;;;26.56;47.86;101549.09;4716458;30;20386;-71
2022/07/20 10:42:46;;;;;;;14.85;6.93;;;;;;;26.49;48.13;101547.59;4716673;30;20036;-71
2022/07/20 10:45:14;;;;;;;16.95;6.95;;;;;;;26.48;48.15;101553.44;4701045;30;20029;-71
2022/07/20 10:47:57;;;;;;;10.77;6.57;;;;;;;26.59;48.23;101545.72;4716594;30;20379;-71
2022/07/20 10:50:26;;;;;;;13.05;6.82;;;;;;;26.65;47.54;101539.69;4711333;30;20092;-71
2022/07/20 10:52:56;;;;;;;12.48;6.47;;;;;;;26.84;48.75;101544.22;4716318;30;20035;-71
2022/07/20 10:55:33;;;;;;;15.10;6.55;;;;;;;26.81;46.94;101547.63;4716761;30;20112;-70
2022/07/20 10:58:07;;;;;;;11.13;6.00;;;;;;;26.86;47.42;101553.06;4716598;30;20033;-71
2022/07/20 11:00:37;;;;;;;10.40;6.15;;;;;;;26.92;47.46;101554.56;4714634;30;20397;-71
2022/07/20 11:03:29;;;;;;;12.43;6.22;;;;;;;26.99;47.24;101562.44;4715834;30;20033;-71
2022/07/20 11:06:05;;;;;;;15.63;6.65;;;;;;;27.03;47.34;101552.31;4715072;30;20029;-70
2022/07/20 11:08:30;;;;;;;12.02;5.75;;;;;;;27.09;47.07;101556.59;4715490;30;20033;-70
2022/07/20 11:10:56;;;;;;;11.98;6.25;;;;;;;27.17;47.41;101560.53;4715883;30;20575;-71
2022/07/20 11:13:22;;;;;;;14.82;6.70;;;;;;;27.08;46.63;101551.38;4700310;30;20128;-73
2022/07/20 11:15:52;;;;;;;18.02;6.15;;;;;;;27.13;47.44;101548.44;4715901;30;20040;-71
2022/07/20 11:18:24;;;;;;;11.10;5.95;;;;;;;27.27;47.02;101545.56;4699469;30;20057;-71